Time;durP1;ratioP1;P1;durP2;ratioP2;P2;SDS_P1;SDS_P2;PMS_P1;PMS_P2;Temp;Humidity;BMP_temperature;BMP_pressure;BME280_temperature;BME280_humidity;BME280_pressure;Samples;Min_cycle;Max_cycle;Signal;HPM_P1;HPM_P2
2022/12/17 13:06:42;;;;;;;19.20;16.37;;;;;;;;;;5014714;28;20423;-50
2022/12/17 13:09:22;;;;;;;21.37;17.27;;;;;;;;;;5014632;28;20445;-51
2022/12/17 13:11:49;;;;;;;21.03;17.73;;;;;;;;;;5014353;28;20880;-50
2022/12/17 13:14:17;;;;;;;19.83;17.27;;;;;;;;;;5014272;28;20818;-51
2022/12/17 13:16:51;;;;;;;22.17;17.63;;;;;;;;;;5014098;28;20445;-51
2022/12/17 13:19:19;;;;;;;23.07;17.27;;;;;;;;;;5014041;28;20816;-51
2022/12/17 13:21:45;;;;;;;24.37;18.37;;;;;;;;;;5014251;28;20437;-51
2022/12/17 13:24:12;;;;;;;18.37;15.87;;;;;;;;;;5014167;28;20428;-50
2022/12/17 13:26:44;;;;;;;19.47;16.33;;;;;;;;;;5014233;28;20928;-52
2022/12/17 13:29:12;;;;;;;21.87;16.63;;;;;;;;;;5014080;28;20472;-52
2022/12/17 13:31:47;;;;;;;19.33;15.73;;;;;;;;;;5014194;28;20444;-51
2022/12/17 13:34:19;;;;;;;21.37;16.30;;;;;;;;;;5013885;28;20497;-51
2022/12/17 13:36:48;;;;;;;19.20;16.37;;;;;;;;;;5013810;28;20806;-51
2022/12/17 13:39:22;;;;;;;19.57;16.10;;;;;;;;;;5013560;28;20559;-51
2022/12/17 13:41:52;;;;;;;18.50;16.47;;;;;;;;;;5013882;28;20471;-50
2022/12/17 13:44:20;;;;;;;21.20;17.53;;;;;;;;;;5012770;28;20865;-51
2022/12/17 13:46:48;;;;;;;22.27;18.10;;;;;;;;;;5014079;28;20467;-50
2022/12/17 13:49:17;;;;;;;20.77;17.93;;;;;;;;;;5014049;28;20440;-51
2022/12/17 13:51:44;;;;;;;21.37;17.93;;;;;;;;;;5014143;28;20472;-50
2022/12/17 13:54:14;;;;;;;22.90;17.60;;;;;;;;;;5011865;28;20475;-51
2022/12/17 13:56:40;;;;;;;22.43;18.03;;;;;;;;;;5013835;28;20946;-51
2022/12/17 13:59:06;;;;;;;20.07;17.73;;;;;;;;;;5013481;28;20875;-50
2022/12/17 14:01:42;;;;;;;23.13;18.50;;;;;;;;;;5013542;28;20483;-51
2022/12/17 14:04:18;;;;;;;24.60;18.60;;;;;;;;;;5013610;28;20217;-51
2022/12/17 14:06:46;;;;;;;23.33;19.23;;;;;;;;;;5013290;28;20441;-51
2022/12/17 14:09:14;;;;;;;21.83;18.23;;;;;;;;;;5013145;28;20931;-51
2022/12/17 14:14:28;;;;;;;24.93;19.10;;;;;;;;;;5013324;28;20465;-51
2022/12/17 14:16:55;;;;;;;22.37;18.30;;;;;;;;;;5013311;28;20840;-51
2022/12/17 14:19:21;;;;;;;24.03;18.43;;;;;;;;;;5013396;28;20447;-51
2022/12/17 14:21:48;;;;;;;22.30;17.43;;;;;;;;;;5013151;28;21170;-51
2022/12/17 14:24:15;;;;;;;21.73;18.67;;;;;;;;;;5013043;28;20451;-51
2022/12/17 14:26:48;;;;;;;23.47;18.13;;;;;;;;;;5013106;28;20452;-51
2022/12/17 14:29:14;;;;;;;22.20;18.20;;;;;;;;;;5012892;28;20996;-51
2022/12/17 14:31:50;;;;;;;22.67;18.07;;;;;;;;;;5013094;28;20444;-51
2022/12/17 14:34:16;;;;;;;22.33;18.10;;;;;;;;;;5012994;28;20459;-51
2022/12/17 14:36:43;;;;;;;21.43;18.37;;;;;;;;;;5013125;28;20440;-52
2022/12/17 14:39:17;;;;;;;24.47;18.17;;;;;;;;;;5012743;28;20233;-51
2022/12/17 14:44:28;;;;;;;23.87;18.63;;;;;;;;;;5012701;28;20420;-53
2022/12/17 14:47:06;;;;;;;22.83;18.83;;;;;;;;;;5012679;28;21029;-52
2022/12/17 14:49:32;;;;;;;25.00;20.03;;;;;;;;;;5012554;28;20444;-52
2022/12/17 14:51:58;;;;;;;28.20;20.00;;;;;;;;;;5012372;28;20440;-52
2022/12/17 14:54:29;;;;;;;22.93;19.77;;;;;;;;;;5012515;28;20447;-53
2022/12/17 14:56:56;;;;;;;25.47;20.33;;;;;;;;;;5012564;28;20449;-52
2022/12/17 14:59:23;;;;;;;25.20;19.87;;;;;;;;;;5012719;28;20451;-52
2022/12/17 15:01:49;;;;;;;29.53;21.00;;;;;;;;;;5012630;28;20440;-52
2022/12/17 15:04:17;;;;;;;26.27;21.10;;;;;;;;;;5012237;28;20464;-52
2022/12/17 15:06:43;;;;;;;25.73;19.63;;;;;;;;;;5012683;28;20441;-51
2022/12/17 15:09:09;;;;;;;22.73;18.97;;;;;;;;;;5012810;28;20978;-52
2022/12/17 15:11:37;;;;;;;26.87;20.13;;;;;;;;;;5012525;28;20479;-52
2022/12/17 15:14:03;;;;;;;24.57;18.80;;;;;;;;;;5011999;28;20487;-52
2022/12/17 15:16:29;;;;;;;24.83;19.23;;;;;;;;;;5012313;28;20472;-51
2022/12/17 15:18:55;;;;;;;23.83;18.97;;;;;;;;;;5012443;28;20503;-52
2022/12/17 15:21:21;;;;;;;25.73;19.77;;;;;;;;;;5012437;28;20815;-52
2022/12/17 15:23:48;;;;;;;23.13;19.33;;;;;;;;;;5012259;28;20429;-53
2022/12/17 15:26:14;;;;;;;24.03;19.70;;;;;;;;;;5012188;28;20440;-52
2022/12/17 15:28:42;;;;;;;25.37;19.80;;;;;;;;;;5012220;28;20480;-52
2022/12/17 15:31:08;;;;;;;26.57;20.30;;;;;;;;;;5012239;28;20507;-53
2022/12/17 15:33:34;;;;;;;23.33;18.83;;;;;;;;;;5011888;28;20459;-52
2022/12/17 15:36:00;;;;;;;26.33;19.33;;;;;;;;;;5011893;28;20429;-52
2022/12/17 15:38:26;;;;;;;26.00;19.80;;;;;;;;;;5011964;28;20512;-52
2022/12/17 15:40:52;;;;;;;22.50;19.07;;;;;;;;;;5012128;28;20197;-52
2022/12/17 15:43:18;;;;;;;26.47;19.43;;;;;;;;;;5011754;28;20927;-52
2022/12/17 15:45:47;;;;;;;81.50;41.63;;;;;;;;;;5011961;28;20432;-52
2022/12/17 15:48:15;;;;;;;38.77;25.77;;;;;;;;;;5011740;28;21149;-51
2022/12/17 15:50:41;;;;;;;31.03;22.57;;;;;;;;;;5011982;28;20448;-50
2022/12/17 15:53:08;;;;;;;27.90;21.60;;;;;;;;;;5011825;28;20451;-51
2022/12/17 15:55:34;;;;;;;30.13;21.43;;;;;;;;;;5011712;28;20437;-51
2022/12/17 15:58:00;;;;;;;27.83;19.87;;;;;;;;;;5011621;28;20440;-51
2022/12/17 16:00:26;;;;;;;27.90;20.70;;;;;;;;;;5011846;28;20945;-51
2022/12/17 16:02:53;;;;;;;25.30;19.40;;;;;;;;;;5011800;28;20447;-50
2022/12/17 16:05:20;;;;;;;35.93;26.63;;;;;;;;;;5011622;28;20437;-52
2022/12/17 16:07:46;;;;;;;37.40;27.33;;;;;;;;;;5010964;28;20845;-52
2022/12/17 16:10:14;;;;;;;34.57;25.60;;;;;;;;;;5011661;28;20424;-50
2022/12/17 16:12:40;;;;;;;31.87;24.37;;;;;;;;;;5011635;28;20490;-50
2022/12/17 16:15:07;;;;;;;27.87;21.77;;;;;;;;;;5011538;28;20472;-51
2022/12/17 16:17:33;;;;;;;26.37;21.53;;;;;;;;;;5011594;28;20491;-50
2022/12/17 16:20:00;;;;;;;30.67;21.43;;;;;;;;;;5011448;28;20433;-50
2022/12/17 16:22:26;;;;;;;27.10;21.40;;;;;;;;;;5011728;28;20502;-51
2022/12/17 16:24:52;;;;;;;28.33;22.03;;;;;;;;;;5011752;28;20440;-50
2022/12/17 16:27:18;;;;;;;29.03;21.67;;;;;;;;;;5011560;28;20483;-50
2022/12/17 16:29:46;;;;;;;27.73;21.03;;;;;;;;;;5011645;28;20764;-51
2022/12/17 16:32:13;;;;;;;29.30;22.03;;;;;;;;;;5011293;28;20429;-51
2022/12/17 16:34:39;;;;;;;25.87;20.03;;;;;;;;;;5011605;28;20453;-51
2022/12/17 16:37:06;;;;;;;27.27;21.23;;;;;;;;;;5011280;28;20439;-51
2022/12/17 16:39:32;;;;;;;28.57;21.10;;;;;;;;;;5011110;28;20984;-51
2022/12/17 16:41:58;;;;;;;27.63;22.00;;;;;;;;;;5011146;28;20810;-51
2022/12/17 16:44:24;;;;;;;24.67;19.57;;;;;;;;;;5011501;28;20441;-51
2022/12/17 16:46:51;;;;;;;23.97;19.60;;;;;;;;;;5011308;28;20525;-51
2022/12/17 16:49:17;;;;;;;34.30;24.90;;;;;;;;;;5011190;28;21050;-51
2022/12/17 16:51:44;;;;;;;32.03;23.13;;;;;;;;;;5011248;28;20523;-51
2022/12/17 16:54:13;;;;;;;87.77;38.87;;;;;;;;;;5011300;28;20467;-51
2022/12/17 16:56:40;;;;;;;51.17;28.27;;;;;;;;;;5011538;28;20452;-51
2022/12/17 16:59:07;;;;;;;32.80;24.00;;;;;;;;;;5011340;28;20981;-50
2022/12/17 17:01:33;;;;;;;30.30;23.20;;;;;;;;;;5011453;28;20527;-51
2022/12/17 17:03:59;;;;;;;26.93;21.33;;;;;;;;;;5011133;28;20495;-49
2022/12/17 17:06:26;;;;;;;34.87;25.00;;;;;;;;;;5011203;28;20438;-48
2022/12/17 17:08:52;;;;;;;27.83;21.17;;;;;;;;;;5011065;28;20480;-48
2022/12/17 17:11:20;;;;;;;30.03;21.63;;;;;;;;;;5010992;28;20841;-50
2022/12/17 17:13:47;;;;;;;30.90;23.97;;;;;;;;;;5011022;28;20449;-49
2022/12/17 17:16:13;;;;;;;35.10;23.67;;;;;;;;;;5010925;28;20946;-49
2022/12/17 17:18:39;;;;;;;32.53;23.57;;;;;;;;;;5013105;28;20432;-51
2022/12/17 17:21:12;;;;;;;25.50;20.53;;;;;;;;;;5014599;28;20424;-49
2022/12/17 17:23:39;;;;;;;25.37;20.07;;;;;;;;;;5014694;28;20436;-49
2022/12/17 17:26:05;;;;;;;26.30;20.00;;;;;;;;;;5012094;28;20935;-50
2022/12/17 17:28:32;;;;;;;24.70;20.00;;;;;;;;;;5014284;28;20554;-49
2022/12/17 17:30:58;;;;;;;25.83;20.43;;;;;;;;;;5014346;28;20484;-49
2022/12/17 17:33:28;;;;;;;30.83;20.53;;;;;;;;;;5014427;28;20827;-49
2022/12/17 17:35:54;;;;;;;27.83;20.33;;;;;;;;;;5014398;28;20487;-49
2022/12/17 17:38:20;;;;;;;25.67;19.40;;;;;;;;;;5014061;28;20464;-49
2022/12/17 17:40:45;;;;;;;27.63;20.10;;;;;;;;;;5014233;28;20897;-49
2022/12/17 17:43:12;;;;;;;27.27;21.03;;;;;;;;;;5014092;28;20449;-48
2022/12/17 17:45:41;;;;;;;29.83;21.07;;;;;;;;;;5014312;28;20852;-49
2022/12/17 17:48:07;;;;;;;28.00;21.33;;;;;;;;;;5014077;28;20472;-51
2022/12/17 17:50:33;;;;;;;25.93;20.90;;;;;;;;;;5014105;28;20457;-50
2022/12/17 17:52:59;;;;;;;29.50;21.90;;;;;;;;;;5013858;28;20884;-50
2022/12/17 17:55:25;;;;;;;27.30;21.80;;;;;;;;;;5014102;28;20565;-50
2022/12/17 17:57:52;;;;;;;31.00;21.50;;;;;;;;;;5013863;28;20515;-50
2022/12/17 18:00:18;;;;;;;28.73;22.00;;;;;;;;;;5013962;28;20437;-50
2022/12/17 18:02:45;;;;;;;28.10;20.83;;;;;;;;;;5013930;28;20861;-49
2022/12/17 18:05:11;;;;;;;33.23;23.00;;;;;;;;;;5013824;28;20535;-48
2022/12/17 18:07:37;;;;;;;33.57;23.33;;;;;;;;;;5013769;28;20576;-50
2022/12/17 18:10:04;;;;;;;31.13;22.20;;;;;;;;;;5013631;28;20433;-49
2022/12/17 18:15:14;;;;;;;24.93;19.60;;;;;;;;;;5013717;28;20470;-50
2022/12/17 18:17:40;;;;;;;32.03;22.00;;;;;;;;;;5013650;28;20441;-50
2022/12/17 18:20:09;;;;;;;30.93;22.40;;;;;;;;;;5013740;28;20445;-50
2022/12/17 18:22:35;;;;;;;30.07;21.17;;;;;;;;;;5013435;28;20551;-50
2022/12/17 18:25:01;;;;;;;28.30;21.27;;;;;;;;;;5013320;28;20652;-50
2022/12/17 18:27:27;;;;;;;28.13;20.83;;;;;;;;;;5012044;28;20584;-50
2022/12/17 18:29:53;;;;;;;28.63;20.47;;;;;;;;;;5012844;28;20906;-49
2022/12/17 18:32:19;;;;;;;30.90;21.00;;;;;;;;;;5013205;28;20515;-50
2022/12/17 18:34:45;;;;;;;43.37;27.43;;;;;;;;;;5013570;28;21010;-50
2022/12/17 18:37:12;;;;;;;37.57;26.80;;;;;;;;;;5013306;28;20506;-50
2022/12/17 18:39:38;;;;;;;38.33;26.87;;;;;;;;;;5013369;28;20571;-53
2022/12/17 18:44:50;;;;;;;50.33;33.27;;;;;;;;;;5013129;28;20420;-51
2022/12/17 18:47:17;;;;;;;46.97;32.63;;;;;;;;;;5013102;28;20428;-50
2022/12/17 18:49:43;;;;;;;36.63;28.23;;;;;;;;;;5013009;28;20864;-50
2022/12/17 18:52:10;;;;;;;39.70;29.67;;;;;;;;;;5013001;28;20441;-51
2022/12/17 18:54:38;;;;;;;36.93;27.73;;;;;;;;;;5012941;28;20831;-50
2022/12/17 18:57:04;;;;;;;33.83;25.23;;;;;;;;;;5012611;28;20931;-49
2022/12/17 18:59:30;;;;;;;37.70;28.77;;;;;;;;;;5012727;28;20433;-49
2022/12/17 19:01:57;;;;;;;35.77;25.10;;;;;;;;;;5008954;28;20441;-49
2022/12/17 19:04:23;;;;;;;33.10;23.87;;;;;;;;;;4993350;28;20905;-49
2022/12/17 19:06:52;;;;;;;33.00;24.10;;;;;;;;;;4993025;28;20504;-51
2022/12/17 19:09:19;;;;;;;27.80;20.87;;;;;;;;;;4992802;28;20500;-51
2022/12/17 19:11:47;;;;;;;29.27;20.20;;;;;;;;;;4993000;28;20449;-49
2022/12/17 19:14:13;;;;;;;26.60;20.27;;;;;;;;;;4992805;28;20457;-49
2022/12/17 19:16:39;;;;;;;28.17;20.07;;;;;;;;;;4993066;28;20438;-49
2022/12/17 19:19:05;;;;;;;26.57;19.13;;;;;;;;;;4992805;28;20442;-51
2022/12/17 19:21:32;;;;;;;25.00;19.57;;;;;;;;;;4992938;28;20521;-51
2022/12/17 19:23:59;;;;;;;24.37;20.97;;;;;;;;;;4992704;28;20441;-50
2022/12/17 19:26:26;;;;;;;29.17;22.10;;;;;;;;;;4992859;28;20441;-50
2022/12/17 19:28:54;;;;;;;28.27;22.30;;;;;;;;;;4992699;28;21013;-50
2022/12/17 19:31:21;;;;;;;29.27;22.17;;;;;;;;;;4992638;28;20874;-50
2022/12/17 19:33:47;;;;;;;33.47;25.30;;;;;;;;;;4992512;28;20523;-49
2022/12/17 19:36:14;;;;;;;44.20;25.60;;;;;;;;;;4992534;28;20856;-49
2022/12/17 19:38:40;;;;;;;30.13;22.73;;;;;;;;;;4992465;28;20473;-52
2022/12/17 19:41:08;;;;;;;29.73;23.40;;;;;;;;;;4991983;28;20480;-49
2022/12/17 19:43:34;;;;;;;29.10;21.53;;;;;;;;;;4992083;28;20540;-51
2022/12/17 19:46:02;;;;;;;31.67;22.70;;;;;;;;;;4992338;28;20543;-50
2022/12/17 19:48:29;;;;;;;31.40;22.00;;;;;;;;;;4992254;28;20576;-50
2022/12/17 19:50:58;;;;;;;35.03;22.60;;;;;;;;;;4992378;28;20433;-51
2022/12/17 19:53:26;;;;;;;26.10;20.30;;;;;;;;;;4992532;28;20468;-49
2022/12/17 19:55:52;;;;;;;33.27;22.60;;;;;;;;;;4992253;28;20851;-51
2022/12/17 19:58:18;;;;;;;29.27;20.00;;;;;;;;;;4992022;28;20928;-51
2022/12/17 20:00:44;;;;;;;25.77;19.83;;;;;;;;;;4992125;28;20445;-52
2022/12/17 20:03:11;;;;;;;32.30;20.93;;;;;;;;;;4992272;28;20438;-50
2022/12/17 20:05:37;;;;;;;30.50;21.57;;;;;;;;;;4992321;28;20488;-50
2022/12/17 20:08:03;;;;;;;29.07;20.43;;;;;;;;;;4992037;28;20481;-51
2022/12/17 20:10:32;;;;;;;29.17;20.50;;;;;;;;;;4991992;28;20924;-50
2022/12/17 20:12:58;;;;;;;28.20;20.33;;;;;;;;;;4991889;28;20936;-50
2022/12/17 20:15:24;;;;;;;26.67;20.60;;;;;;;;;;4992265;28;20441;-50
2022/12/17 20:17:50;;;;;;;28.37;19.60;;;;;;;;;;4992134;28;20433;-50
2022/12/17 20:20:17;;;;;;;24.73;19.20;;;;;;;;;;4991875;28;20820;-50
2022/12/17 20:22:43;;;;;;;25.63;20.20;;;;;;;;;;4991906;28;20532;-50
2022/12/17 20:25:10;;;;;;;27.20;20.17;;;;;;;;;;4992224;28;20461;-49
2022/12/17 20:27:36;;;;;;;28.57;20.23;;;;;;;;;;4991919;28;20481;-50
2022/12/17 20:30:02;;;;;;;28.60;20.77;;;;;;;;;;4991767;28;20435;-49
2022/12/17 20:32:28;;;;;;;37.57;25.87;;;;;;;;;;4991983;28;20536;-50
2022/12/17 20:34:54;;;;;;;34.93;24.10;;;;;;;;;;4991932;28;20496;-51
2022/12/17 20:37:21;;;;;;;33.73;23.70;;;;;;;;;;4991827;28;20466;-49
2022/12/17 20:39:47;;;;;;;30.97;22.03;;;;;;;;;;4991666;28;20556;-51
2022/12/17 20:42:13;;;;;;;32.27;21.87;;;;;;;;;;4991605;28;21035;-51
2022/12/17 20:44:39;;;;;;;30.17;21.17;;;;;;;;;;4992043;28;20433;-53
2022/12/17 20:47:05;;;;;;;28.30;21.00;;;;;;;;;;4991773;28;20784;-49
2022/12/17 20:49:31;;;;;;;27.07;19.97;;;;;;;;;;4991728;28;20500;-50
2022/12/17 20:51:57;;;;;;;26.97;19.77;;;;;;;;;;4991607;28;20433;-49
2022/12/17 20:54:25;;;;;;;28.00;20.73;;;;;;;;;;4994981;28;20441;-50
2022/12/17 20:56:51;;;;;;;27.83;20.73;;;;;;;;;;4995516;28;20449;-50
2022/12/17 20:59:18;;;;;;;28.07;20.40;;;;;;;;;;4995464;28;20433;-52
2022/12/17 21:01:44;;;;;;;30.57;21.70;;;;;;;;;;4995695;28;20803;-51
2022/12/17 21:04:11;;;;;;;30.90;21.37;;;;;;;;;;4995617;28;20441;-51
2022/12/17 21:06:38;;;;;;;26.03;19.50;;;;;;;;;;4995413;28;20928;-50
2022/12/17 21:09:04;;;;;;;29.17;21.13;;;;;;;;;;4995281;28;20588;-50
2022/12/17 21:11:32;;;;;;;34.30;23.87;;;;;;;;;;4995135;28;20445;-51
2022/12/17 21:14:01;;;;;;;39.33;26.93;;;;;;;;;;4995179;28;20532;-51
2022/12/17 21:16:28;;;;;;;37.27;26.97;;;;;;;;;;4995090;28;20900;-50
2022/12/17 21:18:55;;;;;;;38.37;25.67;;;;;;;;;;4995246;28;20954;-50
2022/12/17 21:21:21;;;;;;;40.23;26.03;;;;;;;;;;4995023;28;20547;-51
2022/12/17 21:23:48;;;;;;;34.33;24.33;;;;;;;;;;4995030;28;20495;-51
2022/12/17 21:26:17;;;;;;;27.20;21.13;;;;;;;;;;4994701;28;20438;-51
2022/12/17 21:28:46;;;;;;;27.60;20.37;;;;;;;;;;4994869;28;20485;-51
2022/12/17 21:31:16;;;;;;;32.13;21.40;;;;;;;;;;4994788;28;20437;-50
2022/12/17 21:33:43;;;;;;;42.80;24.87;;;;;;;;;;4994832;28;20438;-52
2022/12/17 21:36:09;;;;;;;36.03;22.57;;;;;;;;;;4995125;28;20437;-53
2022/12/17 21:38:35;;;;;;;28.60;21.40;;;;;;;;;;4994834;28;20480;-51
2022/12/17 21:41:03;;;;;;;32.37;21.80;;;;;;;;;;4994603;28;20433;-52
2022/12/17 21:43:29;;;;;;;28.50;20.50;;;;;;;;;;4994698;28;20561;-51
2022/12/17 21:45:57;;;;;;;25.40;19.30;;;;;;;;;;4994693;28;20533;-53
2022/12/17 21:48:23;;;;;;;23.20;19.30;;;;;;;;;;4994631;28;20499;-53
2022/12/17 21:50:49;;;;;;;23.97;18.73;;;;;;;;;;4994478;28;20893;-52
2022/12/17 21:53:15;;;;;;;26.00;19.17;;;;;;;;;;4994451;28;20437;-52
2022/12/17 21:55:41;;;;;;;25.83;17.37;;;;;;;;;;4994588;28;20430;-52
2022/12/17 21:58:07;;;;;;;24.63;17.20;;;;;;;;;;4994343;28;20924;-51
2022/12/17 22:00:34;;;;;;;27.20;18.67;;;;;;;;;;4994635;28;20438;-51
2022/12/17 22:03:01;;;;;;;22.83;16.30;;;;;;;;;;4994487;28;20449;-50
2022/12/17 22:05:27;;;;;;;21.67;16.47;;;;;;;;;;4999581;28;20447;-53
2022/12/17 22:07:54;;;;;;;24.03;17.33;;;;;;;;;;5018075;28;20843;-53
2022/12/17 22:10:20;;;;;;;21.23;17.77;;;;;;;;;;5033368;28;20435;-52
2022/12/17 22:15:31;;;;;;;24.23;16.03;;;;;;;;;;5033386;28;20442;-54
2022/12/17 22:17:57;;;;;;;23.27;15.73;;;;;;;;;;5033257;28;20436;-53
2022/12/17 22:20:25;;;;;;;23.03;16.77;;;;;;;;;;5033077;28;20442;-53
2022/12/17 22:22:51;;;;;;;21.23;16.13;;;;;;;;;;5033369;28;20464;-53
2022/12/17 22:25:17;;;;;;;22.40;16.00;;;;;;;;;;5033025;28;20474;-54
2022/12/17 22:27:43;;;;;;;24.23;15.73;;;;;;;;;;5033048;28;20969;-54
2022/12/17 22:33:01;;;;;;;21.70;16.57;;;;;;;;;;5033044;28;20508;-54
2022/12/17 22:35:32;;;;;;;22.43;17.07;;;;;;;;;;5032978;28;20480;-54
2022/12/17 22:37:58;;;;;;;24.77;16.47;;;;;;;;;;5032906;28;20478;-54
2022/12/17 22:40:24;;;;;;;25.23;17.53;;;;;;;;;;5032747;28;20856;-54
2022/12/17 22:45:37;;;;;;;24.17;17.23;;;;;;;;;;5032661;28;20418;-54
2022/12/17 22:48:04;;;;;;;23.90;16.73;;;;;;;;;;5032492;28;20808;-54
2022/12/17 22:50:31;;;;;;;21.97;16.70;;;;;;;;;;5032533;28;20600;-54
2022/12/17 22:52:57;;;;;;;23.13;15.50;;;;;;;;;;5032597;28;20440;-53
2022/12/17 22:55:23;;;;;;;18.50;14.37;;;;;;;;;;5032530;28;20443;-55
2022/12/17 22:57:49;;;;;;;20.03;15.10;;;;;;;;;;5032213;28;20483;-53
2022/12/17 23:00:17;;;;;;;20.53;14.83;;;;;;;;;;5032298;28;20436;-55
2022/12/17 23:02:43;;;;;;;20.50;14.90;;;;;;;;;;5032334;28;20439;-54
2022/12/17 23:05:09;;;;;;;19.13;14.67;;;;;;;;;;5026068;28;20847;-54
2022/12/17 23:07:36;;;;;;;19.93;14.30;;;;;;;;;;5012622;28;20441;-54
2022/12/17 23:10:02;;;;;;;19.23;15.23;;;;;;;;;;5012169;28;21066;-55
2022/12/17 23:15:13;;;;;;;20.67;14.57;;;;;;;;;;5012474;28;20512;-54
2022/12/17 23:17:39;;;;;;;18.67;14.17;;;;;;;;;;5012462;28;20523;-54
2022/12/17 23:20:05;;;;;;;19.07;14.50;;;;;;;;;;5012631;28;20443;-55
2022/12/17 23:22:31;;;;;;;18.27;14.60;;;;;;;;;;5011966;28;20455;-54
2022/12/17 23:24:59;;;;;;;20.23;14.30;;;;;;;;;;5012298;28;20929;-54
2022/12/17 23:27:25;;;;;;;20.13;14.27;;;;;;;;;;5012286;28;20444;-54
2022/12/17 23:29:51;;;;;;;20.23;14.13;;;;;;;;;;5012385;28;20519;-55
2022/12/17 23:32:17;;;;;;;21.87;14.53;;;;;;;;;;5012126;28;20723;-54
2022/12/17 23:34:43;;;;;;;18.73;14.40;;;;;;;;;;5011474;28;20836;-54
2022/12/17 23:37:09;;;;;;;17.87;13.17;;;;;;;;;;5012030;28;20448;-54
2022/12/17 23:39:35;;;;;;;21.07;14.40;;;;;;;;;;5012073;28;20467;-53
2022/12/17 23:42:02;;;;;;;19.93;14.60;;;;;;;;;;5011765;28;20800;-54
2022/12/17 23:44:28;;;;;;;16.53;13.40;;;;;;;;;;5011916;28;20502;-54
2022/12/17 23:46:54;;;;;;;17.23;13.07;;;;;;;;;;5011832;28;20850;-54
2022/12/17 23:49:20;;;;;;;17.03;13.00;;;;;;;;;;5011615;28;20986;-53
2022/12/17 23:51:46;;;;;;;17.90;12.87;;;;;;;;;;5011887;28;20448;-53
2022/12/17 23:54:12;;;;;;;18.20;13.00;;;;;;;;;;5011583;28;20441;-55
2022/12/17 23:56:38;;;;;;;18.33;12.30;;;;;;;;;;5011851;28;20436;-53
2022/12/17 23:59:06;;;;;;;18.63;12.53;;;;;;;;;;5011412;28;20440;-53
